Time;durP1;ratioP1;P1;durP2;ratioP2;P2;SDS_P1;SDS_P2;PMS_P1;PMS_P2;Temp;Humidity;BMP_temperature;BMP_pressure;BME280_temperature;BME280_humidity;BME280_pressure;Samples;Min_cycle;Max_cycle;Signal;HPM_P1;HPM_P2
2021/03/30 00:01:52;;;;;;;1.90;0.52;;;14.50;48.00;;;;;;4993607;28;20491;-80
2021/03/30 00:04:18;;;;;;;0.43;0.25;;;14.50;48.00;;;;;;4977654;28;20057;-79
2021/03/30 00:06:44;;;;;;;2.17;0.25;;;14.40;48.10;;;;;;4993980;28;20034;-79
2021/03/30 00:09:10;;;;;;;3.25;0.30;;;14.40;48.20;;;;;;4994994;28;20035;-79
2021/03/30 00:11:36;;;;;;;0.47;0.13;;;14.40;48.30;;;;;;4993856;28;20041;-80
2021/03/30 00:14:03;;;;;;;5.25;0.65;;;14.40;48.30;;;;;;4993723;28;20427;-79
2021/03/30 00:16:29;;;;;;;5.25;0.70;;;14.30;48.30;;;;;;4993369;28;20041;-79
2021/03/30 00:18:55;;;;;;;0.63;0.25;;;14.20;48.30;;;;;;4992987;28;20022;-80
2021/03/30 00:21:21;;;;;;;3.30;0.80;;;14.20;48.40;;;;;;4994477;28;20045;-79
2021/03/30 00:23:47;;;;;;;1.92;0.22;;;14.20;48.40;;;;;;4993515;28;20033;-79
2021/03/30 00:26:13;;;;;;;0.95;0.25;;;14.20;48.40;;;;;;4994677;28;20058;-79
2021/03/30 00:28:39;;;;;;;4.60;0.60;;;14.20;48.40;;;;;;4977658;28;20034;-79
2021/03/30 00:31:05;;;;;;;2.30;0.90;;;14.20;48.50;;;;;;4992250;28;20061;-79
2021/03/30 00:33:32;;;;;;;0.70;0.28;;;14.20;48.60;;;;;;4993134;28;20431;-79
2021/03/30 00:35:58;;;;;;;0.55;0.20;;;14.10;48.60;;;;;;4992858;28;20038;-80
2021/03/30 00:38:24;;;;;;;1.70;0.45;;;14.10;48.70;;;;;;4993335;28;20034;-79
2021/03/30 00:40:51;;;;;;;1.20;0.63;;;14.00;48.70;;;;;;4993376;28;20065;-80
2021/03/30 00:43:17;;;;;;;0.77;0.35;;;14.00;48.80;;;;;;4993241;28;20041;-79
2021/03/30 00:45:43;;;;;;;0.98;0.30;;;14.00;48.90;;;;;;4993136;28;20423;-79
2021/03/30 00:48:10;;;;;;;0.43;0.28;;;14.00;48.90;;;;;;4994435;28;20030;-79
2021/03/30 00:50:36;;;;;;;1.33;0.35;;;13.90;49.00;;;;;;4992906;28;20026;-79
2021/03/30 00:53:02;;;;;;;0.30;0.10;;;13.90;49.10;;;;;;4993267;28;20464;-79
2021/03/30 00:55:28;;;;;;;0.50;0.20;;;13.90;49.20;;;;;;4993160;28;20041;-79
2021/03/30 00:57:54;;;;;;;1.83;0.63;;;13.80;49.20;;;;;;4992248;28;20035;-80
2021/03/30 01:00:22;;;;;;;1.35;0.50;;;13.80;49.30;;;;;;4992524;28;20034;-79
2021/03/30 01:02:48;;;;;;;4.07;0.65;;;13.80;49.30;;;;;;4976849;28;20045;-80
2021/03/30 01:05:15;;;;;;;3.60;1.45;;;13.70;49.30;;;;;;4992736;28;20057;-79
2021/03/30 01:08:13;;;;;;;0.98;0.40;;;13.70;49.30;;;;;;4993235;28;20038;-80
2021/03/30 01:10:45;;;;;;;3.92;0.68;;;13.60;49.30;;;;;;4979384;28;20057;-80
2021/03/30 01:13:16;;;;;;;4.15;0.35;;;13.60;49.40;;;;;;4992861;28;20038;-81
2021/03/30 01:15:44;;;;;;;;;;;13.60;49.40;;;;;;4990737;28;20487;-80
2021/03/30 01:18:28;;;;;;;3.92;0.57;;;13.60;49.50;;;;;;4976630;28;20359;-79
2021/03/30 01:21:19;;;;;;;1.38;0.22;;;13.50;49.40;;;;;;4992829;28;20031;-79
2021/03/30 01:24:09;;;;;;;0.50;0.20;;;13.50;49.50;;;;;;4993884;28;20399;-79
2021/03/30 01:27:09;;;;;;;0.60;0.10;;;13.40;49.60;;;;;;4993865;28;20491;-80
2021/03/30 01:29:52;;;;;;;0.55;0.20;;;13.40;49.70;;;;;;4955972;28;20399;-80
2021/03/30 01:32:20;;;;;;;2.28;0.55;;;13.30;49.70;;;;;;4955258;28;20369;-80
2021/03/30 01:34:47;;;;;;;0.57;0.30;;;13.30;49.70;;;;;;4968989;28;20031;-80
2021/03/30 01:37:13;;;;;;;0.63;0.28;;;13.20;49.80;;;;;;4956222;28;20050;-79
2021/03/30 01:39:40;;;;;;;2.75;0.82;;;13.20;49.90;;;;;;4971529;28;20047;-79
2021/03/30 01:42:08;;;;;;;1.02;0.38;;;13.10;49.90;;;;;;4961997;28;20480;-79
2021/03/30 01:44:35;;;;;;;0.70;0.25;;;13.10;50.00;;;;;;4933397;29;20526;-79
2021/03/30 01:47:01;;;;;;;0.47;0.25;;;13.10;50.00;;;;;;4959040;28;20567;-79
2021/03/30 01:49:28;;;;;;;4.47;0.60;;;13.10;50.10;;;;;;4975992;28;20049;-79
2021/03/30 01:51:55;;;;;;;2.33;0.73;;;13.00;50.10;;;;;;4975051;28;20046;-79
2021/03/30 01:54:21;;;;;;;0.77;0.17;;;13.00;50.20;;;;;;4964053;28;20039;-79
2021/03/30 01:56:47;;;;;;;2.88;0.55;;;13.00;50.30;;;;;;4943842;28;20046;-79
2021/03/30 01:59:14;;;;;;;2.25;0.40;;;12.90;50.30;;;;;;4943859;28;20049;-79
2021/03/30 02:01:41;;;;;;;3.92;0.45;;;12.90;50.40;;;;;;4942976;28;20030;-79
2021/03/30 02:04:07;;;;;;;5.03;0.60;;;12.80;50.40;;;;;;4955489;28;20027;-79
2021/03/30 02:06:34;;;;;;;0.90;0.35;;;12.90;50.50;;;;;;4982756;28;20041;-79
2021/03/30 02:09:03;;;;;;;0.55;0.30;;;12.80;50.60;;;;;;4991788;28;20026;-79
2021/03/30 02:11:32;;;;;;;1.27;0.40;;;12.80;50.60;;;;;;4974510;28;20023;-80
2021/03/30 02:13:59;;;;;;;0.60;0.28;;;12.80;50.60;;;;;;4990294;28;20034;-79
2021/03/30 02:16:30;;;;;;;1.83;0.35;;;12.70;50.60;;;;;;4989580;28;20030;-80
2021/03/30 02:19:01;;;;;;;;;;;12.70;50.80;;;;;;4974327;28;20026;-80
2021/03/30 02:21:33;;;;;;;1.27;0.52;;;12.60;50.80;;;;;;4990121;28;20382;-79
2021/03/30 02:24:01;;;;;;;0.93;0.25;;;12.60;50.70;;;;;;4975412;28;20029;-79
2021/03/30 02:26:27;;;;;;;0.70;0.30;;;12.60;50.80;;;;;;4989806;28;20034;-82
2021/03/30 02:28:57;;;;;;;2.55;0.17;;;12.50;50.80;;;;;;4974005;28;20030;-79
2021/03/30 02:31:27;;;;;;;1.58;0.30;;;12.50;50.90;;;;;;4974039;28;20216;-79
2021/03/30 02:33:54;;;;;;;1.80;0.20;;;12.40;51.00;;;;;;4989319;28;20030;-79
2021/03/30 02:36:21;;;;;;;3.03;0.35;;;12.40;51.00;;;;;;4989787;28;20104;-79
2021/03/30 02:38:47;;;;;;;1.67;0.50;;;12.40;51.10;;;;;;4979347;28;20033;-80
2021/03/30 02:41:15;;;;;;;0.17;0.13;;;12.40;51.20;;;;;;4979442;28;20510;-79
2021/03/30 02:43:41;;;;;;;0.60;0.30;;;12.30;51.10;;;;;;4995507;28;20027;-79
2021/03/30 02:46:07;;;;;;;0.17;0.10;;;12.30;51.20;;;;;;4994038;28;20066;-79
2021/03/30 02:48:35;;;;;;;3.67;0.43;;;12.30;51.20;;;;;;4994898;28;20038;-79
2021/03/30 02:51:03;;;;;;;3.03;0.68;;;12.30;51.30;;;;;;4976051;28;20043;-80
2021/03/30 02:53:29;;;;;;;0.40;0.32;;;12.30;51.30;;;;;;4972442;28;20506;-79
2021/03/30 02:55:55;;;;;;;3.55;1.40;;;12.20;51.30;;;;;;4994944;28;20030;-79
2021/03/30 02:58:21;;;;;;;9.25;0.30;;;12.20;52.00;;;;;;4995292;28;20475;-79
2021/03/30 03:00:47;;;;;;;1.90;0.65;;;12.20;51.30;;;;;;4977605;28;20041;-79
2021/03/30 03:03:13;;;;;;;2.65;0.45;;;12.20;51.40;;;;;;4995022;28;20517;-80
2021/03/30 03:05:39;;;;;;;1.45;0.32;;;12.20;51.40;;;;;;4994998;28;20034;-79
2021/03/30 03:08:06;;;;;;;3.55;0.40;;;12.20;51.40;;;;;;4994793;28;20075;-80
2021/03/30 03:10:34;;;;;;;0.75;0.55;;;12.20;51.50;;;;;;4994974;28;20031;-79
2021/03/30 03:13:00;;;;;;;0.38;0.10;;;12.10;51.40;;;;;;4994091;28;20403;-79
2021/03/30 03:15:26;;;;;;;2.45;0.38;;;12.10;51.50;;;;;;4978131;28;20026;-79
2021/03/30 03:17:52;;;;;;;0.38;0.17;;;12.10;51.50;;;;;;4994824;28;20391;-79
2021/03/30 03:20:18;;;;;;;0.52;0.28;;;12.10;51.60;;;;;;4979036;28;20050;-79
2021/03/30 03:22:44;;;;;;;0.75;0.40;;;12.00;51.60;;;;;;4994794;28;20023;-79
2021/03/30 03:25:13;;;;;;;0.50;0.25;;;12.00;51.70;;;;;;4994724;28;20435;-79
2021/03/30 03:27:39;;;;;;;1.70;1.00;;;11.90;51.70;;;;;;4977778;28;20475;-79
2021/03/30 03:30:11;;;;;;;0.75;0.40;;;11.90;51.80;;;;;;4974747;28;20049;-82
2021/03/30 03:32:38;;;;;;;0.65;0.20;;;11.90;51.90;;;;;;4988915;28;20034;-79
2021/03/30 03:35:08;;;;;;;0.88;0.28;;;11.80;51.80;;;;;;4994466;28;20034;-79
2021/03/30 03:37:41;;;;;;;1.63;0.47;;;11.80;52.00;;;;;;4978213;28;20045;-79
2021/03/30 03:40:07;;;;;;;0.10;0.10;;;11.70;52.00;;;;;;4994104;28;20034;-79
2021/03/30 03:42:36;;;;;;;0.63;0.22;;;11.70;52.10;;;;;;4994544;28;20057;-81
2021/03/30 03:45:04;;;;;;;1.55;0.57;;;11.70;52.10;;;;;;4994879;28;20050;-79
2021/03/30 03:47:30;;;;;;;2.63;0.50;;;11.70;52.10;;;;;;4994397;28;20030;-79
2021/03/30 03:49:56;;;;;;;0.70;0.20;;;11.70;52.70;;;;;;4994314;28;20041;-79
2021/03/30 03:52:22;;;;;;;1.23;0.68;;;11.60;52.20;;;;;;4995397;28;20049;-79
2021/03/30 03:54:48;;;;;;;1.23;0.10;;;11.60;52.20;;;;;;4993610;28;20022;-79
2021/03/30 03:57:29;;;;;;;2.50;0.52;;;11.60;52.30;;;;;;4993812;28;20045;-79
2021/03/30 03:59:55;;;;;;;1.40;0.63;;;11.50;52.40;;;;;;4974739;28;20034;-79
2021/03/30 04:02:26;;;;;;;0.65;0.22;;;11.50;52.40;;;;;;4985444;28;20035;-79
2021/03/30 04:04:57;;;;;;;1.25;0.50;;;11.50;52.40;;;;;;4994233;28;20027;-79
2021/03/30 04:07:27;;;;;;;1.23;0.70;;;11.50;52.50;;;;;;4994785;28;20025;-79
2021/03/30 04:09:54;;;;;;;0.93;0.40;;;11.40;52.50;;;;;;4973237;28;20038;-80
2021/03/30 04:12:21;;;;;;;3.42;0.50;;;11.40;52.50;;;;;;4993544;28;20395;-79
2021/03/30 04:14:47;;;;;;;2.83;0.52;;;11.40;52.60;;;;;;4993906;28;20035;-80
2021/03/30 04:17:20;;;;;;;0.50;0.15;;;11.30;52.60;;;;;;4993280;28;20042;-81
2021/03/30 04:19:46;;;;;;;2.63;0.70;;;11.30;52.70;;;;;;4994920;28;20033;-78
2021/03/30 04:22:13;;;;;;;1.70;0.40;;;11.30;52.70;;;;;;4994908;28;20022;-79
2021/03/30 04:24:40;;;;;;;0.80;0.30;;;11.20;52.70;;;;;;4994162;28;20053;-79
2021/03/30 04:27:11;;;;;;;2.03;0.77;;;11.20;52.80;;;;;;4994361;28;20050;-80
2021/03/30 04:29:41;;;;;;;0.70;0.40;;;11.20;52.80;;;;;;4993385;28;20030;-79
2021/03/30 04:32:08;;;;;;;5.30;0.73;;;11.20;52.80;;;;;;4994285;28;20057;-79
2021/03/30 04:34:34;;;;;;;0.32;0.17;;;11.20;52.80;;;;;;4994581;28;20274;-81
2021/03/30 04:37:00;;;;;;;2.00;0.80;;;11.20;52.80;;;;;;4992635;28;20034;-79
2021/03/30 04:39:27;;;;;;;4.35;0.88;;;11.20;52.90;;;;;;4994608;28;20030;-81
2021/03/30 04:41:53;;;;;;;1.00;0.63;;;11.20;52.90;;;;;;4994284;28;20038;-79
2021/03/30 04:44:19;;;;;;;0.60;0.20;;;11.20;52.90;;;;;;4994228;28;20043;-79
2021/03/30 04:46:45;;;;;;;0.52;0.22;;;11.10;52.90;;;;;;4992706;28;20503;-79
2021/03/30 04:49:11;;;;;;;1.58;0.45;;;11.10;53.00;;;;;;4994423;28;20502;-80
2021/03/30 04:51:37;;;;;;;1.00;0.40;;;11.10;53.00;;;;;;4993647;28;20026;-81
2021/03/30 04:54:03;;;;;;;1.65;0.38;;;11.00;53.00;;;;;;4993076;28;20390;-79
2021/03/30 04:56:30;;;;;;;2.90;0.82;;;11.00;53.10;;;;;;4993874;28;20026;-79
2021/03/30 04:58:56;;;;;;;1.27;0.68;;;11.00;53.10;;;;;;4993281;28;20030;-80
2021/03/30 05:01:22;;;;;;;0.90;0.20;;;11.00;53.10;;;;;;4994073;28;20487;-79
2021/03/30 05:03:48;;;;;;;2.72;0.65;;;11.00;53.10;;;;;;4993322;28;20026;-80
2021/03/30 05:06:14;;;;;;;1.25;0.35;;;11.00;53.20;;;;;;4992899;28;20043;-80
2021/03/30 05:08:40;;;;;;;1.42;0.82;;;10.90;53.20;;;;;;4993961;28;20056;-79
2021/03/30 05:11:06;;;;;;;1.55;0.20;;;10.90;53.20;;;;;;4993785;28;20422;-80
2021/03/30 05:13:32;;;;;;;0.70;0.30;;;10.90;53.40;;;;;;4993970;28;20030;-79
2021/03/30 05:15:58;;;;;;;0.57;0.20;;;10.80;53.40;;;;;;4992792;28;20399;-79
2021/03/30 05:18:24;;;;;;;0.70;0.28;;;10.70;53.50;;;;;;4992656;28;20030;-79
2021/03/30 05:20:51;;;;;;;0.40;0.13;;;10.70;53.60;;;;;;4994004;28;20034;-79
2021/03/30 05:23:17;;;;;;;1.63;0.40;;;10.60;53.70;;;;;;4992697;28;20490;-79
2021/03/30 05:25:43;;;;;;;1.83;0.88;;;10.60;53.80;;;;;;4976616;28;20168;-79
2021/03/30 05:28:09;;;;;;;0.50;0.30;;;10.50;53.70;;;;;;4992632;28;20041;-80
2021/03/30 05:30:35;;;;;;;5.97;0.90;;;10.50;53.80;;;;;;4991314;28;20045;-79
2021/03/30 05:33:02;;;;;;;2.70;0.35;;;10.50;53.90;;;;;;4993993;28;20035;-79
2021/03/30 05:35:28;;;;;;;2.75;0.43;;;10.50;54.00;;;;;;4993805;28;20464;-79
2021/03/30 05:37:54;;;;;;;0.65;0.30;;;10.40;54.00;;;;;;4992592;28;20034;-80
2021/03/30 05:40:20;;;;;;;0.75;0.55;;;10.40;54.00;;;;;;4993507;28;20045;-79
2021/03/30 05:42:46;;;;;;;0.47;0.40;;;10.40;54.20;;;;;;4991617;28;20387;-79
2021/03/30 05:45:18;;;;;;;0.75;0.32;;;10.30;54.30;;;;;;4991884;28;20403;-79
2021/03/30 05:47:45;;;;;;;0.52;0.32;;;10.30;54.30;;;;;;4992255;28;20041;-79
2021/03/30 05:50:13;;;;;;;0.57;0.47;;;10.30;54.50;;;;;;4992668;28;20041;-80
2021/03/30 05:53:04;;;;;;;1.80;0.82;;;10.20;54.60;;;;;;4992476;28;20031;-79
2021/03/30 05:55:29;;;;;;;0.55;0.32;;;10.20;54.60;;;;;;4978425;28;20045;-80
2021/03/30 05:57:57;;;;;;;0.77;0.25;;;10.20;54.60;;;;;;4992724;28;20029;-79
2021/03/30 06:00:47;;;;;;;2.30;0.30;;;10.20;54.60;;;;;;4994738;28;20037;-81
2021/03/30 06:03:15;;;;;;;0.43;0.20;;;10.20;54.70;;;;;;4993523;28;20399;-78
2021/03/30 06:05:41;;;;;;;1.00;0.55;;;10.20;54.60;;;;;;4992259;28;20403;-79
2021/03/30 06:08:07;;;;;;;1.20;0.50;;;10.30;54.60;;;;;;4993514;28;20415;-79
2021/03/30 06:10:35;;;;;;;2.78;0.47;;;10.30;54.60;;;;;;4992336;28;20034;-78
2021/03/30 06:13:04;;;;;;;1.35;0.50;;;10.30;54.60;;;;;;4992538;28;20031;-79
2021/03/30 06:15:32;;;;;;;0.90;0.57;;;10.30;54.50;;;;;;4977049;28;20056;-80
2021/03/30 06:18:00;;;;;;;3.45;0.63;;;10.30;54.60;;;;;;4993253;28;20451;-79
2021/03/30 06:20:34;;;;;;;1.40;0.80;;;10.30;54.50;;;;;;4992184;28;20026;-81
2021/03/30 06:23:02;;;;;;;0.90;0.20;;;10.40;54.60;;;;;;4992950;28;20039;-81
2021/03/30 06:25:48;;;;;;;3.22;0.60;;;10.50;54.50;;;;;;4992038;28;20030;-81
2021/03/30 06:28:28;;;;;;;2.20;0.70;;;10.50;54.50;;;;;;4993217;28;20073;-81
2021/03/30 06:31:13;;;;;;;0.47;0.28;;;10.60;54.50;;;;;;4990207;28;20407;-81
2021/03/30 06:33:58;;;;;;;2.50;0.75;;;10.70;54.40;;;;;;4993258;28;20369;-81
2021/03/30 06:36:26;;;;;;;3.53;0.45;;;11.00;54.20;;;;;;4996128;28;20089;-81
2021/03/30 06:39:03;;;;;;;2.00;0.55;;;11.30;53.70;;;;;;4995662;28;20411;-79
2021/03/30 06:47:00;;;;;;;1.40;0.88;;;12.30;52.40;;;;;;4996858;28;20053;-81
2021/03/30 06:49:28;;;;;;;1.30;0.65;;;12.50;52.70;;;;;;4981414;28;20037;-81
2021/03/30 06:51:54;;;;;;;2.90;0.73;;;12.70;51.80;;;;;;4990434;28;20042;-81
2021/03/30 06:54:21;;;;;;;1.60;0.63;;;13.00;51.60;;;;;;4995392;28;20399;-81
2021/03/30 06:56:56;;;;;;;0.82;0.40;;;13.30;51.50;;;;;;4996408;28;20030;-81
2021/03/30 06:59:23;;;;;;;1.63;0.35;;;13.50;51.20;;;;;;4996517;28;20022;-80
2021/03/30 07:01:54;;;;;;;0.95;0.32;;;13.70;51.20;;;;;;4995998;28;20491;-81
2021/03/30 07:04:20;;;;;;;2.33;0.57;;;13.80;51.20;;;;;;4994989;28;20031;-80
2021/03/30 07:06:54;;;;;;;1.08;0.40;;;13.80;51.20;;;;;;4995138;28;20403;-81
2021/03/30 07:09:22;;;;;;;0.25;0.03;;;13.80;51.30;;;;;;4995230;28;20038;-80
2021/03/30 07:11:49;;;;;;;2.47;0.35;;;13.80;51.40;;;;;;4996165;28;20392;-81
2021/03/30 07:14:15;;;;;;;0.57;0.30;;;13.90;51.50;;;;;;4979140;28;20042;-82
2021/03/30 07:16:53;;;;;;;1.05;0.40;;;14.00;51.50;;;;;;4994393;28;20391;-80
2021/03/30 07:19:24;;;;;;;0.60;0.40;;;14.10;51.50;;;;;;4996112;28;20049;-80
2021/03/30 07:22:04;;;;;;;1.63;0.65;;;14.20;51.40;;;;;;4977630;28;20045;-81
2021/03/30 07:24:54;;;;;;;0.75;0.25;;;14.30;51.30;;;;;;4995394;28;20033;-80
2021/03/30 07:27:23;;;;;;;0.90;0.40;;;14.40;51.20;;;;;;4994423;28;20057;-80
2021/03/30 07:29:50;;;;;;;2.13;0.45;;;14.60;51.10;;;;;;4995625;28;20049;-81
2021/03/30 07:32:29;;;;;;;2.03;0.60;;;14.80;51.00;;;;;;4995345;28;20053;-81
2021/03/30 07:35:16;;;;;;;1.60;0.22;;;15.00;50.90;;;;;;4994071;28;20399;-81
2021/03/30 07:37:54;;;;;;;1.55;0.77;;;15.10;50.80;;;;;;4981175;28;20034;-81
2021/03/30 07:40:20;;;;;;;1.08;0.75;;;15.10;50.70;;;;;;4995071;28;20034;-81
2021/03/30 07:42:47;;;;;;;1.17;0.40;;;15.20;50.80;;;;;;4993215;28;20384;-81
2021/03/30 07:45:14;;;;;;;1.30;0.40;;;15.30;50.70;;;;;;4974261;28;20059;-81
2021/03/30 07:47:41;;;;;;;1.27;0.30;;;15.40;50.70;;;;;;4990411;28;20050;-81
2021/03/30 07:50:08;;;;;;;0.47;0.15;;;15.50;50.70;;;;;;4994006;28;20057;-81
2021/03/30 07:52:44;;;;;;;0.82;0.32;;;15.60;50.60;;;;;;4995451;28;20030;-81
2021/03/30 07:55:24;;;;;;;1.67;0.57;;;15.80;50.60;;;;;;4993766;28;20480;-81
2021/03/30 07:57:59;;;;;;;0.35;0.32;;;15.80;50.60;;;;;;4994222;28;20027;-82
2021/03/30 08:00:30;;;;;;;4.15;0.38;;;15.90;50.70;;;;;;4994690;28;20035;-81
2021/03/30 08:03:16;;;;;;;1.20;0.40;;;16.00;50.80;;;;;;5001147;28;20034;-81
2021/03/30 08:05:42;;;;;;;0.00;0.00;;;16.10;50.70;;;;;;4995316;28;20030;-82
2021/03/30 08:08:24;;;;;;;1.02;0.40;;;16.30;50.50;;;;;;4995122;28;20041;-81
2021/03/30 08:10:51;;;;;;;2.33;0.60;;;16.40;50.40;;;;;;4993993;28;20027;-81
2021/03/30 08:13:27;;;;;;;1.33;0.38;;;16.50;50.30;;;;;;4995360;28;20052;-81
2021/03/30 08:15:58;;;;;;;0.52;0.20;;;16.60;50.20;;;;;;4989312;28;20046;-81
2021/03/30 08:18:31;;;;;;;3.50;1.05;;;16.70;50.10;;;;;;4995091;28;20057;-81
2021/03/30 08:20:58;;;;;;;0.88;0.50;;;16.80;50.10;;;;;;4993778;28;20030;-81
2021/03/30 08:23:25;;;;;;;0.73;0.30;;;16.90;50.00;;;;;;4994544;28;20026;-81
2021/03/30 08:25:52;;;;;;;0.80;0.25;;;17.00;50.00;;;;;;4993669;28;20049;-83
2021/03/30 08:28:59;;;;;;;2.28;0.47;;;17.20;49.90;;;;;;4994666;28;20045;-81
2021/03/30 08:31:25;;;;;;;1.55;0.50;;;17.30;49.80;;;;;;4957173;28;20042;-81
2021/03/30 08:33:54;;;;;;;1.48;0.40;;;17.50;49.60;;;;;;4971374;28;20055;-81
2021/03/30 08:36:26;;;;;;;0.63;0.20;;;17.60;49.40;;;;;;4968146;28;20046;-82
2021/03/30 08:39:07;;;;;;;1.95;0.60;;;17.70;49.40;;;;;;4957008;28;20030;-81
2021/03/30 08:41:42;;;;;;;1.67;0.73;;;17.90;49.20;;;;;;4968722;28;20047;-82
2021/03/30 08:44:21;;;;;;;2.33;0.50;;;18.20;48.80;;;;;;4968385;28;20459;-82
2021/03/30 08:46:52;;;;;;;2.20;0.40;;;18.40;48.70;;;;;;4956492;28;20047;-81
2021/03/30 08:49:40;;;;;;;0.50;0.20;;;18.50;48.60;;;;;;4955655;28;20169;-82
2021/03/30 08:52:15;;;;;;;0.60;0.28;;;18.60;48.50;;;;;;4971591;28;20046;-81
2021/03/30 08:54:52;;;;;;;5.03;1.02;;;18.70;48.40;;;;;;4971981;28;20443;-81
2021/03/30 08:57:23;;;;;;;0.10;0.10;;;18.80;48.50;;;;;;4957375;28;20039;-82
2021/03/30 08:59:49;;;;;;;1.80;0.70;;;18.90;48.40;;;;;;4968431;28;20027;-81
2021/03/30 09:02:21;;;;;;;2.13;0.50;;;19.00;48.30;;;;;;4955713;28;20035;-82
2021/03/30 09:04:47;;;;;;;0.93;0.20;;;19.10;48.20;;;;;;4953423;28;20199;-81
2021/03/30 09:07:13;;;;;;;1.00;0.50;;;19.30;48.10;;;;;;4960353;28;20061;-81
2021/03/30 09:09:39;;;;;;;12.43;0.45;;;19.60;47.90;;;;;;4993301;28;20030;-81
2021/03/30 09:12:18;;;;;;;1.30;0.63;;;19.90;47.50;;;;;;4992812;28;20042;-81
2021/03/30 09:15:01;;;;;;;0.57;0.30;;;19.90;47.40;;;;;;4992760;28;20050;-82
2021/03/30 09:17:28;;;;;;;1.00;0.45;;;20.00;47.40;;;;;;4992926;28;20038;-82
2021/03/30 09:19:54;;;;;;;0.80;0.40;;;20.10;47.40;;;;;;4994275;28;20062;-83
2021/03/30 09:27:45;;;;;;;1.85;0.43;;;20.40;47.30;;;;;;4999540;28;20384;-83
2021/03/30 09:30:13;;;;;;;0.70;0.30;;;20.60;47.00;;;;;;4993164;28;20030;-80
2021/03/30 09:32:41;;;;;;;0.45;0.20;;;20.90;46.80;;;;;;4992403;28;20045;-80
2021/03/30 09:35:10;;;;;;;0.35;0.20;;;21.10;46.50;;;;;;4992858;28;20030;-82
2021/03/30 09:37:44;;;;;;;0.93;0.20;;;21.20;46.30;;;;;;4995476;28;20037;-81
2021/03/30 09:40:12;;;;;;;0.77;0.15;;;21.30;46.20;;;;;;4993668;28;20031;-82
2021/03/30 09:42:42;;;;;;;0.70;0.13;;;21.30;46.20;;;;;;4989896;28;20034;-83
2021/03/30 09:45:12;;;;;;;0.75;0.25;;;21.30;46.20;;;;;;4991601;28;20046;-81
2021/03/30 09:47:38;;;;;;;0.70;0.25;;;21.30;46.10;;;;;;4976174;28;20057;-80
2021/03/30 09:50:05;;;;;;;3.33;0.98;;;21.50;46.10;;;;;;4992572;28;20038;-79
2021/03/30 09:52:32;;;;;;;0.40;0.13;;;21.70;45.80;;;;;;4992495;28;20034;-80
2021/03/30 09:54:58;;;;;;;0.65;0.15;;;21.80;45.50;;;;;;4991502;28;20033;-82
2021/03/30 09:57:27;;;;;;;2.88;0.25;;;21.90;45.40;;;;;;4995385;28;20030;-81
2021/03/30 09:59:53;;;;;;;1.30;0.45;;;22.10;45.30;;;;;;4993209;28;20038;-83
2021/03/30 10:02:29;;;;;;;1.27;0.13;;;22.30;45.10;;;;;;4992082;28;20407;-83
2021/03/30 10:04:57;;;;;;;0.20;0.00;;;22.50;44.70;;;;;;4994574;28;20030;-83
2021/03/30 10:07:24;;;;;;;1.23;0.40;;;22.60;44.60;;;;;;4997388;28;20482;-82
2021/03/30 10:10:04;;;;;;;1.25;0.40;;;22.60;44.50;;;;;;4996545;28;20371;-82
2021/03/30 10:12:34;;;;;;;2.53;0.50;;;22.70;44.40;;;;;;4997849;28;20031;-82
2021/03/30 10:15:00;;;;;;;3.20;0.30;;;22.80;44.30;;;;;;4997117;28;20030;-82
2021/03/30 10:17:27;;;;;;;5.97;0.77;;;23.10;44.10;;;;;;4995545;28;20049;-82
2021/03/30 10:19:54;;;;;;;0.52;0.13;;;23.40;43.80;;;;;;4995787;28;20027;-82
2021/03/30 10:22:31;;;;;;;2.15;0.63;;;23.60;43.30;;;;;;4996116;28;20043;-81
2021/03/30 10:25:29;;;;;;;0.82;0.47;;;23.70;43.00;;;;;;4993195;28;20487;-82
2021/03/30 10:27:57;;;;;;;0.57;0.30;;;23.60;42.90;;;;;;4935397;29;20055;-83
2021/03/30 10:30:30;;;;;;;1.80;0.52;;;23.60;43.00;;;;;;4935492;28;20550;-81
2021/03/30 10:32:59;;;;;;;0.57;0.20;;;23.80;43.00;;;;;;4931764;29;20042;-81
2021/03/30 10:35:25;;;;;;;0.70;0.17;;;23.80;42.50;;;;;;4928746;29;20027;-82
2021/03/30 10:37:52;;;;;;;0.20;0.10;;;23.80;42.60;;;;;;4939653;29;20043;-83
2021/03/30 10:40:18;;;;;;;0.68;0.17;;;23.80;42.20;;;;;;4924222;28;20136;-82
2021/03/30 10:42:44;;;;;;;0.30;0.10;;;23.80;42.10;;;;;;4954689;29;20047;-82
2021/03/30 10:45:12;;;;;;;0.52;0.30;;;23.80;42.10;;;;;;4954917;28;20054;-82
2021/03/30 10:47:39;;;;;;;0.22;0.10;;;23.90;41.80;;;;;;4955597;28;20104;-83
2021/03/30 10:50:14;;;;;;;0.20;0.20;;;23.90;41.70;;;;;;4955453;28;20484;-82
2021/03/30 10:52:43;;;;;;;1.38;0.13;;;23.90;41.60;;;;;;4954761;28;20043;-82
2021/03/30 10:55:11;;;;;;;0.98;0.28;;;23.90;41.40;;;;;;4939600;28;20069;-82
2021/03/30 10:57:39;;;;;;;0.40;0.20;;;23.80;41.50;;;;;;4952440;29;20488;-81
2021/03/30 11:00:09;;;;;;;0.77;0.10;;;23.80;41.40;;;;;;4935046;28;20051;-82
2021/03/30 11:02:36;;;;;;;3.40;0.20;;;23.90;41.30;;;;;;4924118;28;20031;-82
2021/03/30 11:05:03;;;;;;;0.77;0.20;;;24.10;41.30;;;;;;4985613;28;20030;-82
2021/03/30 11:07:29;;;;;;;0.88;0.30;;;24.30;41.00;;;;;;4996315;28;20048;-82
2021/03/30 11:09:55;;;;;;;0.43;0.10;;;24.60;40.60;;;;;;4993883;28;20066;-82
2021/03/30 11:12:21;;;;;;;7.68;0.30;;;24.80;40.30;;;;;;4995968;28;20035;-83
2021/03/30 11:14:47;;;;;;;0.45;0.28;;;24.90;40.20;;;;;;4994877;28;20023;-82
2021/03/30 11:17:14;;;;;;;2.00;0.17;;;25.10;40.10;;;;;;4994489;28;20484;-82
2021/03/30 11:19:40;;;;;;;0.50;0.30;;;25.20;39.80;;;;;;4996314;28;20030;-82
2021/03/30 11:22:06;;;;;;;0.45;0.10;;;25.20;39.70;;;;;;4995373;28;20035;-83
2021/03/30 11:24:38;;;;;;;1.05;0.30;;;25.10;39.60;;;;;;4994418;28;20480;-82
2021/03/30 11:27:05;;;;;;;0.40;0.10;;;25.10;39.70;;;;;;4994425;28;20042;-82
2021/03/30 11:32:15;;;;;;;0.80;0.13;;;24.90;39.50;;;;;;4995695;28;20053;-82
2021/03/30 11:39:45;;;;;;;0.88;0.10;;;25.00;39.40;;;;;;4998322;28;20033;-82
2021/03/30 11:42:11;;;;;;;1.85;0.50;;;25.10;39.10;;;;;;4995366;28;20045;-82
2021/03/30 11:44:37;;;;;;;0.30;0.10;;;25.20;39.10;;;;;;4974918;28;20433;-82
2021/03/30 11:47:04;;;;;;;0.68;0.20;;;25.30;38.70;;;;;;4984667;28;20054;-82
2021/03/30 11:49:31;;;;;;;4.55;0.20;;;25.30;38.70;;;;;;4995644;28;20063;-83
2021/03/30 11:51:57;;;;;;;5.15;0.77;;;25.20;38.60;;;;;;4992840;28;20045;-82
2021/03/30 11:54:24;;;;;;;0.25;0.10;;;25.10;38.40;;;;;;4996800;28;20026;-82
2021/03/30 11:56:50;;;;;;;0.98;0.10;;;25.10;38.60;;;;;;4974873;28;20584;-82
2021/03/30 11:59:16;;;;;;;0.32;0.10;;;25.10;38.40;;;;;;4985516;28;20049;-82
2021/03/30 12:01:42;;;;;;;1.48;0.30;;;25.30;38.80;;;;;;4993711;28;20510;-82
2021/03/30 12:04:08;;;;;;;1.65;0.13;;;25.50;38.20;;;;;;4995040;28;20041;-82
2021/03/30 12:06:34;;;;;;;0.00;0.00;;;25.60;37.90;;;;;;4994517;28;20030;-82
2021/03/30 12:09:01;;;;;;;3.78;0.28;;;25.70;37.80;;;;;;4994069;28;20038;-82
2021/03/30 12:11:28;;;;;;;0.30;0.10;;;25.80;37.80;;;;;;4994841;28;20026;-84
2021/03/30 12:13:54;;;;;;;2.75;0.20;;;26.00;37.70;;;;;;4994081;28;20037;-82
2021/03/30 12:16:20;;;;;;;4.00;0.47;;;26.20;37.50;;;;;;4994489;28;20037;-83
2021/03/30 12:18:46;;;;;;;0.22;0.10;;;26.40;37.40;;;;;;4993133;28;20022;-82
2021/03/30 12:21:13;;;;;;;0.60;0.20;;;26.60;37.10;;;;;;4994965;28;20039;-82
2021/03/30 12:23:39;;;;;;;1.40;0.28;;;26.60;36.90;;;;;;4995159;28;20037;-82
2021/03/30 12:26:05;;;;;;;0.75;0.10;;;26.60;37.00;;;;;;4995017;28;20511;-82
2021/03/30 12:28:31;;;;;;;0.85;0.30;;;26.70;36.90;;;;;;4994358;28;20057;-82
2021/03/30 12:30:57;;;;;;;0.88;0.25;;;26.70;36.80;;;;;;4993693;28;20029;-82
2021/03/30 12:33:23;;;;;;;0.63;0.00;;;26.60;36.50;;;;;;4996092;28;20364;-82
2021/03/30 12:35:49;;;;;;;0.38;0.10;;;26.60;36.70;;;;;;4993391;28;20018;-82
2021/03/30 12:38:16;;;;;;;1.17;0.43;;;26.70;36.70;;;;;;4994750;28;20046;-84
2021/03/30 12:40:42;;;;;;;1.75;0.20;;;26.90;36.60;;;;;;4994425;28;20034;-83
2021/03/30 12:43:08;;;;;;;2.35;0.10;;;27.10;36.30;;;;;;4993244;28;20038;-82
2021/03/30 12:45:35;;;;;;;7.00;0.20;;;27.10;36.10;;;;;;4993468;28;20411;-82
2021/03/30 12:48:03;;;;;;;0.10;0.10;;;27.00;35.90;;;;;;4993446;28;20054;-82
2021/03/30 12:50:29;;;;;;;1.55;0.30;;;26.80;36.00;;;;;;4994451;28;20026;-83
2021/03/30 12:52:55;;;;;;;1.45;0.38;;;26.70;36.00;;;;;;4994466;28;20031;-82
2021/03/30 12:55:21;;;;;;;0.30;0.10;;;26.50;35.80;;;;;;4992665;28;20033;-82
2021/03/30 12:57:48;;;;;;;1.40;0.47;;;26.50;36.50;;;;;;4993681;28;20491;-82
2021/03/30 13:00:14;;;;;;;0.10;0.00;;;26.60;36.00;;;;;;4993997;28;20037;-82
2021/03/30 13:02:40;;;;;;;2.33;0.20;;;26.70;35.80;;;;;;4994210;28;20023;-82
2021/03/30 13:05:07;;;;;;;1.38;0.30;;;26.70;35.30;;;;;;4993056;28;20035;-82
2021/03/30 13:07:33;;;;;;;0.43;0.10;;;26.60;35.50;;;;;;4992608;28;20061;-81
2021/03/30 13:09:59;;;;;;;7.38;0.10;;;26.70;35.40;;;;;;4992868;28;20045;-82
2021/03/30 13:12:25;;;;;;;1.30;0.10;;;26.70;35.40;;;;;;4994132;28;20490;-82
2021/03/30 13:14:51;;;;;;;0.57;0.30;;;26.80;35.20;;;;;;4992843;28;20026;-83
2021/03/30 13:17:17;;;;;;;1.88;0.08;;;26.70;35.10;;;;;;4993588;28;20403;-83